createdAt,value
2023-03-21T00:00:14.748Z,0
2023-03-21T00:01:29.030Z,0
2023-03-21T00:02:43.454Z,0
2023-03-21T00:03:57.760Z,0
2023-03-21T00:05:12.043Z,0
2023-03-21T00:06:26.447Z,0
2023-03-21T00:07:40.854Z,0
2023-03-21T00:08:55.182Z,0
2023-03-21T00:10:09.454Z,0
2023-03-21T00:11:23.747Z,0
2023-03-21T00:12:38.160Z,0
2023-03-21T00:13:52.477Z,0
2023-03-21T00:15:06.759Z,0
2023-03-21T00:16:21.031Z,0
2023-03-21T00:17:35.433Z,0
2023-03-21T00:18:49.769Z,0
2023-03-21T00:20:04.042Z,0
2023-03-21T00:21:18.318Z,0
2023-03-21T00:22:32.741Z,0
2023-03-21T00:23:47.068Z,0
2023-03-21T00:25:01.341Z,0
2023-03-21T00:26:15.609Z,0
2023-03-21T00:27:30.034Z,0
2023-03-21T00:28:44.345Z,0
2023-03-21T00:29:58.631Z,0
2023-03-21T00:31:13.039Z,0
2023-03-21T00:32:27.440Z,0
2023-03-21T00:33:41.758Z,0
2023-03-21T00:34:56.039Z,0
2023-03-21T00:36:10.322Z,0
2023-03-21T00:37:24.724Z,0
2023-03-21T00:38:39.056Z,0
2023-03-21T00:39:53.346Z,0
2023-03-21T00:41:07.612Z,0
2023-03-21T00:42:22.014Z,0
2023-03-21T00:43:36.353Z,0
2023-03-21T00:44:50.635Z,0
2023-03-21T00:46:04.911Z,0
2023-03-21T00:47:19.312Z,0
2023-03-21T00:48:33.634Z,0
2023-03-21T00:49:47.927Z,0
2023-03-21T00:51:02.200Z,0
2023-03-21T00:52:16.607Z,0
2023-03-21T00:53:30.923Z,0
2023-03-21T00:54:45.203Z,0
2023-03-21T00:55:59.487Z,0
2023-03-21T00:57:13.890Z,0
2023-03-21T00:58:28.215Z,0
2023-03-21T00:59:42.496Z,0
2023-03-21T01:00:56.914Z,0
2023-03-21T01:02:11.305Z,0
2023-03-21T01:03:25.645Z,0
2023-03-21T01:04:39.915Z,0
2023-03-21T01:05:54.198Z,0
2023-03-21T01:07:08.607Z,0
2023-03-21T01:08:22.923Z,0
2023-03-21T01:09:37.205Z,0
2023-03-21T01:10:51.482Z,0
2023-03-21T01:12:05.902Z,0
2023-03-21T01:13:20.217Z,0
2023-03-21T01:14:34.506Z,0
2023-03-21T01:15:48.775Z,0
2023-03-21T01:17:03.192Z,0
2023-03-21T01:18:17.516Z,0
2023-03-21T01:19:31.786Z,0
2023-03-21T01:20:46.074Z,0
2023-03-21T01:22:00.489Z,0
2023-03-21T01:23:14.794Z,0
2023-03-21T01:24:29.088Z,0
2023-03-21T01:25:43.359Z,0
2023-03-21T01:26:57.768Z,0
2023-03-21T01:28:12.104Z,0
2023-03-21T01:29:26.370Z,0
2023-03-21T01:30:40.663Z,0
2023-03-21T01:31:55.064Z,0
2023-03-21T01:33:09.379Z,0
2023-03-21T01:34:23.666Z,0
2023-03-21T01:35:37.958Z,0
2023-03-21T01:36:52.362Z,0
2023-03-21T01:38:06.673Z,0
2023-03-21T01:39:20.953Z,0
2023-03-21T01:40:35.235Z,0
2023-03-21T01:41:49.647Z,0
2023-03-21T01:43:03.978Z,0
2023-03-21T01:44:18.248Z,0
2023-03-21T01:45:32.663Z,0
2023-03-21T01:46:47.000Z,0
2023-03-21T01:48:01.382Z,0
2023-03-21T01:49:15.667Z,0
2023-03-21T01:50:29.950Z,0
2023-03-21T01:51:44.348Z,0
2023-03-21T01:52:58.672Z,0
2023-03-21T01:54:12.951Z,0
2023-03-21T01:56:41.654Z,0
2023-03-21T01:57:55.965Z,0
2023-03-21T01:59:10.244Z,0
2023-03-21T02:00:24.521Z,0
2023-03-21T02:01:38.930Z,0
2023-03-21T02:02:53.260Z,0
2023-03-21T02:04:07.534Z,0
2023-03-21T02:05:21.811Z,0
2023-03-21T02:06:36.232Z,0
2023-03-21T02:07:50.545Z,0
2023-03-21T02:09:04.839Z,0
2023-03-21T02:10:19.116Z,0
2023-03-21T02:11:33.511Z,0
2023-03-21T02:12:47.840Z,0
2023-03-21T02:14:02.121Z,0
2023-03-21T02:15:16.519Z,0
2023-03-21T02:16:30.937Z,0
2023-03-21T02:17:45.254Z,0
2023-03-21T02:18:59.533Z,0
2023-03-21T02:20:13.947Z,0
2023-03-21T02:21:28.357Z,0
2023-03-21T02:22:42.678Z,0
2023-03-21T02:23:56.961Z,0
2023-03-21T02:25:11.224Z,0
2023-03-21T02:26:25.650Z,0
2023-03-21T02:27:39.954Z,0
2023-03-21T02:28:54.253Z,0
2023-03-21T02:30:08.531Z,0
2023-03-21T02:31:22.924Z,0
2023-03-21T02:32:37.256Z,0
2023-03-21T02:33:51.541Z,0
2023-03-21T02:35:05.818Z,0
2023-03-21T02:36:20.229Z,0
2023-03-21T02:37:34.541Z,0
2023-03-21T02:38:48.838Z,0
2023-03-21T02:40:03.104Z,0
2023-03-21T02:41:17.518Z,0
2023-03-21T02:42:31.836Z,0
2023-03-21T02:43:46.112Z,0
2023-03-21T02:45:00.514Z,0
2023-03-21T02:46:14.935Z,0
2023-03-21T02:47:29.252Z,0
2023-03-21T02:48:43.543Z,0
2023-03-21T02:49:57.823Z,0
2023-03-21T02:51:12.226Z,0
2023-03-21T02:52:26.543Z,0
2023-03-21T02:53:40.825Z,0
2023-03-21T02:54:55.106Z,0
2023-03-21T02:56:09.522Z,0
2023-03-21T02:57:23.847Z,0
2023-03-21T02:58:38.110Z,0
2023-03-21T02:59:52.409Z,0
2023-03-21T03:01:06.801Z,0
2023-03-21T03:02:21.136Z,0
2023-03-21T03:03:35.416Z,0
2023-03-21T03:04:49.000Z,0
2023-03-21T03:06:04.104Z,0
2023-03-21T03:07:18.414Z,0
2023-03-21T03:08:32.706Z,0
2023-03-21T03:09:47.103Z,0
2023-03-21T03:12:15.832Z,0
2023-03-21T03:13:30.125Z,0
2023-03-21T03:14:44.402Z,0
2023-03-21T03:15:58.808Z,0
2023-03-21T03:17:13.120Z,0
2023-03-21T03:18:27.404Z,0
2023-03-21T03:19:41.697Z,0
2023-03-21T03:20:56.087Z,0
2023-03-21T03:22:10.423Z,0
2023-03-21T03:23:24.701Z,0
2023-03-21T03:24:38.975Z,0
2023-03-21T03:25:53.386Z,0
2023-03-21T03:28:21.989Z,0
2023-03-21T03:29:36.396Z,0
2023-03-21T03:30:50.805Z,0
2023-03-21T03:32:05.116Z,0
2023-03-21T03:33:19.414Z,0
2023-03-21T03:34:33.693Z,0
2023-03-21T03:35:48.090Z,0
2023-03-21T03:37:02.425Z,0
2023-03-21T03:38:16.688Z,0
2023-03-21T03:39:30.986Z,0
2023-03-21T03:40:45.388Z,0
2023-03-21T03:41:59.719Z,0
2023-03-21T03:43:13.984Z,0
2023-03-21T03:44:28.278Z,0
2023-03-21T03:45:42.669Z,0
2023-03-21T03:46:57.000Z,0
2023-03-21T03:48:11.287Z,0
2023-03-21T03:49:25.690Z,0
2023-03-21T03:50:40.097Z,0
2023-03-21T03:51:54.416Z,0
2023-03-21T03:53:08.698Z,0
2023-03-21T03:54:22.974Z,0
2023-03-21T03:55:37.380Z,0
2023-03-21T03:56:51.706Z,0
2023-03-21T03:58:05.993Z,0
2023-03-21T03:59:20.266Z,0
2023-03-21T04:00:34.673Z,0
2023-03-21T04:01:48.995Z,0
2023-03-21T04:03:03.279Z,0
2023-03-21T04:04:17.550Z,0
2023-03-21T04:05:31.968Z,0
2023-03-21T04:06:46.286Z,0
2023-03-21T04:08:00.564Z,0
2023-03-21T04:09:14.983Z,0
2023-03-21T04:10:29.382Z,0
2023-03-21T04:11:43.696Z,0
2023-03-21T04:12:57.979Z,0
2023-03-21T04:14:12.259Z,0
2023-03-21T04:15:26.664Z,0
2023-03-21T04:16:40.998Z,0
2023-03-21T04:19:09.568Z,0
2023-03-21T04:20:23.956Z,0
2023-03-21T04:21:38.291Z,0
2023-03-21T04:22:52.562Z,0
2023-03-21T04:24:06.855Z,0
2023-03-21T04:25:21.267Z,0
2023-03-21T04:26:35.571Z,0
2023-03-21T04:27:49.869Z,0
2023-03-21T04:29:04.254Z,0
2023-03-21T04:30:18.664Z,0
2023-03-21T04:31:32.996Z,0
2023-03-21T04:32:47.283Z,0
2023-03-21T04:34:01.558Z,0
2023-03-21T04:35:15.962Z,0
2023-03-21T04:36:30.289Z,0
2023-03-21T04:37:44.562Z,0
2023-03-21T04:38:58.853Z,0
2023-03-21T04:40:13.256Z,0
2023-03-21T04:41:27.571Z,0
2023-03-21T04:42:41.854Z,0
2023-03-21T04:43:56.139Z,0
2023-03-21T04:45:10.551Z,0
2023-03-21T04:46:24.873Z,0
2023-03-21T04:47:39.152Z,0
2023-03-21T04:50:07.797Z,1
2023-03-21T04:51:22.038Z,1
2023-03-21T04:52:36.268Z,1
2023-03-21T04:53:50.540Z,0
2023-03-21T04:55:04.820Z,0
2023-03-21T04:56:19.241Z,0
2023-03-21T04:57:33.512Z,1
2023-03-21T04:58:47.795Z,0
2023-03-21T05:00:02.015Z,1
2023-03-21T05:01:16.376Z,0
2023-03-21T05:02:30.638Z,1
2023-03-21T05:03:44.850Z,1
2023-03-21T05:04:59.081Z,3
2023-03-21T05:06:13.310Z,2
2023-03-21T05:07:27.615Z,2
2023-03-21T05:08:41.847Z,7
2023-03-21T05:09:56.080Z,4
2023-03-21T05:11:10.302Z,4
2023-03-21T05:12:24.536Z,6
2023-03-21T05:13:38.831Z,7
2023-03-21T05:14:53.078Z,9
2023-03-21T05:16:07.428Z,11
2023-03-21T05:17:21.639Z,12
2023-03-21T05:18:35.878Z,14
2023-03-21T05:19:50.167Z,16
2023-03-21T05:21:04.419Z,17
2023-03-21T05:22:18.632Z,21
2023-03-21T05:23:32.861Z,23
2023-03-21T05:24:47.096Z,22
2023-03-21T05:26:01.403Z,29
2023-03-21T05:27:15.643Z,44
2023-03-21T05:28:29.862Z,64
2023-03-21T05:29:44.098Z,91
2023-03-21T05:30:58.308Z,102
2023-03-21T05:32:12.622Z,130
2023-03-21T05:33:26.846Z,151
2023-03-21T05:34:41.072Z,182
2023-03-21T05:35:55.425Z,203
2023-03-21T05:37:09.659Z,214
2023-03-21T05:38:23.964Z,228
2023-03-21T05:39:38.208Z,230
2023-03-21T05:40:52.426Z,240
2023-03-21T05:42:06.660Z,254
2023-03-21T05:43:20.873Z,282
2023-03-21T05:44:35.172Z,301
2023-03-21T05:45:49.411Z,328
2023-03-21T05:47:03.654Z,339
2023-03-21T05:48:17.863Z,348
2023-03-21T05:49:32.107Z,357
2023-03-21T05:50:46.394Z,372
2023-03-21T05:53:14.865Z,421
2023-03-21T05:54:29.093Z,441
2023-03-21T05:56:57.741Z,479
2023-03-21T05:58:11.975Z,517
2023-03-21T05:59:26.200Z,537
2023-03-21T06:00:40.438Z,551
2023-03-21T06:01:54.667Z,564
2023-03-21T06:03:08.967Z,554
2023-03-21T06:04:23.200Z,550
2023-03-21T06:05:37.436Z,543
2023-03-21T06:06:51.664Z,542
2023-03-21T06:08:05.876Z,547
2023-03-21T06:09:20.191Z,564
2023-03-21T06:11:48.658Z,617
2023-03-21T06:13:03.021Z,613
2023-03-21T06:14:17.236Z,609
2023-03-21T06:15:31.555Z,568
2023-03-21T06:16:45.782Z,542
2023-03-21T06:18:00.003Z,566
2023-03-21T06:19:14.231Z,606
2023-03-21T06:20:28.469Z,621
2023-03-21T06:21:42.760Z,663
2023-03-21T06:22:57.012Z,704
2023-03-21T06:24:11.239Z,730
2023-03-21T06:25:25.453Z,737
2023-03-21T06:26:39.679Z,744
2023-03-21T06:27:53.983Z,854
2023-03-21T06:29:08.226Z,887
2023-03-21T06:30:22.605Z,893
2023-03-21T06:31:36.832Z,1005
2023-03-21T06:32:51.196Z,1046
2023-03-21T06:34:05.500Z,1178
2023-03-21T06:35:19.747Z,1348
2023-03-21T06:36:33.976Z,1388
2023-03-21T06:37:48.187Z,1399
2023-03-21T06:39:02.415Z,1364
2023-03-21T06:40:16.719Z,1453
2023-03-21T06:41:30.961Z,1598
2023-03-21T06:42:45.190Z,1643
2023-03-21T06:43:59.409Z,1665
2023-03-21T06:45:13.665Z,1669
2023-03-21T06:46:27.934Z,1756
2023-03-21T06:47:42.186Z,1810
2023-03-21T06:48:56.407Z,1798
2023-03-21T06:50:10.629Z,1731
2023-03-21T06:51:24.865Z,1714
2023-03-21T06:52:39.151Z,1559
2023-03-21T06:53:53.406Z,1527
2023-03-21T06:55:07.637Z,1513
2023-03-21T06:56:21.863Z,1566
2023-03-21T06:57:36.072Z,1602
2023-03-21T06:58:50.388Z,1641
2023-03-21T07:00:04.614Z,1592
2023-03-21T07:01:18.850Z,1530
2023-03-21T07:02:33.224Z,1574
2023-03-21T07:03:47.446Z,1608
2023-03-21T07:05:01.744Z,1648
2023-03-21T07:06:15.983Z,1523
2023-03-21T07:07:30.000Z,1326
2023-03-21T07:08:44.437Z,1259
2023-03-21T07:09:58.662Z,1281
2023-03-21T07:11:12.964Z,1228
2023-03-21T07:12:27.199Z,1242
2023-03-21T07:13:41.443Z,1460
2023-03-21T07:14:55.659Z,1719
2023-03-21T07:16:09.895Z,1736
2023-03-21T07:17:24.194Z,1732
2023-03-21T07:18:38.430Z,1836
2023-03-21T07:19:52.779Z,1920
2023-03-21T07:21:07.003Z,2119
2023-03-21T07:22:21.235Z,2124
2023-03-21T07:24:49.763Z,2359
2023-03-21T07:26:03.992Z,2473
2023-03-21T07:27:18.216Z,2549
2023-03-21T07:28:32.459Z,2561
2023-03-21T07:29:46.744Z,2403
2023-03-21T07:31:00.999Z,2526
2023-03-21T07:32:15.219Z,2513
2023-03-21T07:33:29.437Z,2662
2023-03-21T07:34:43.671Z,2682
2023-03-21T07:35:57.967Z,2848
2023-03-21T07:37:12.208Z,2946
2023-03-21T07:38:26.443Z,3095
2023-03-21T07:39:40.816Z,3209
2023-03-21T07:40:55.042Z,3218
2023-03-21T07:42:09.335Z,3196
2023-03-21T07:43:23.567Z,3138
2023-03-21T07:44:37.792Z,3030
2023-03-21T07:45:52.027Z,2943
2023-03-21T07:47:06.246Z,2871
2023-03-21T07:48:20.553Z,2579
2023-03-21T07:49:34.787Z,2220
2023-03-21T07:50:49.014Z,2056
2023-03-21T07:52:03.252Z,2161
2023-03-21T07:53:17.467Z,2266
2023-03-21T07:54:31.784Z,2381
2023-03-21T07:55:46.014Z,2227
2023-03-21T07:57:00.374Z,2384
2023-03-21T07:58:14.593Z,2411
2023-03-21T07:59:28.822Z,2488
2023-03-21T08:01:57.353Z,2643
2023-03-21T08:03:11.588Z,2569
2023-03-21T08:04:25.820Z,2422
2023-03-21T08:05:40.037Z,2380
2023-03-21T08:06:54.343Z,2079
2023-03-21T08:08:08.572Z,1913
2023-03-21T08:09:22.807Z,1752
2023-03-21T08:10:37.031Z,1625
2023-03-21T08:11:51.395Z,1657
2023-03-21T08:13:05.709Z,1668
2023-03-21T08:14:19.940Z,2008
2023-03-21T08:15:34.179Z,1998
2023-03-21T08:18:02.773Z,1965
2023-03-21T08:19:17.057Z,2048
2023-03-21T08:20:31.308Z,2186
2023-03-21T08:21:45.671Z,2272
2023-03-21T08:22:59.902Z,2259
2023-03-21T08:24:14.273Z,2264
2023-03-21T08:25:28.569Z,2280
2023-03-21T08:27:57.042Z,2354
2023-03-21T08:29:11.418Z,2503
2023-03-21T08:30:25.764Z,2572
2023-03-21T08:31:40.053Z,2798
2023-03-21T08:32:54.292Z,3179
2023-03-21T08:34:08.522Z,3472
2023-03-21T08:35:22.761Z,3763
2023-03-21T08:36:36.971Z,3933
2023-03-21T08:37:51.274Z,4219
2023-03-21T08:39:05.515Z,4099
2023-03-21T08:40:19.753Z,3798
2023-03-21T08:41:33.976Z,3593
2023-03-21T08:42:48.202Z,3557
2023-03-21T08:44:02.504Z,3599
2023-03-21T08:45:16.745Z,3349
2023-03-21T08:46:30.977Z,3119
2023-03-21T08:47:45.199Z,3006
2023-03-21T08:48:59.419Z,3009
2023-03-21T08:50:13.726Z,3243
2023-03-21T08:51:27.963Z,3598
2023-03-21T08:52:42.184Z,3749
2023-03-21T08:53:56.551Z,3879
2023-03-21T08:55:10.787Z,3860
2023-03-21T08:56:25.084Z,3833
2023-03-21T08:57:39.320Z,4470
2023-03-21T08:58:53.557Z,4981
2023-03-21T09:00:07.780Z,4888
2023-03-21T09:01:22.118Z,4714
2023-03-21T09:02:36.419Z,4369
2023-03-21T09:03:50.663Z,4213
2023-03-21T09:05:04.888Z,4163
2023-03-21T09:06:19.122Z,4119
2023-03-21T09:07:33.345Z,4187
2023-03-21T09:10:01.891Z,4594
2023-03-21T09:11:16.115Z,4674
2023-03-21T09:12:30.351Z,4330
2023-03-21T09:13:44.562Z,3800
2023-03-21T09:14:58.871Z,4222
2023-03-21T09:16:13.113Z,4322
2023-03-21T09:17:27.344Z,4173
2023-03-21T09:18:41.554Z,4132
2023-03-21T09:19:55.795Z,4321
2023-03-21T09:21:10.091Z,4414
2023-03-21T09:22:24.324Z,4271
2023-03-21T09:23:38.550Z,4183
2023-03-21T09:24:52.795Z,4307
2023-03-21T09:26:07.164Z,4315
2023-03-21T09:27:21.445Z,4351
2023-03-21T09:28:35.702Z,4513
2023-03-21T09:29:49.927Z,4832
2023-03-21T09:31:04.289Z,5104
2023-03-21T09:32:18.510Z,5169
2023-03-21T09:33:32.812Z,5155
2023-03-21T09:34:47.071Z,4973
2023-03-21T09:36:01.291Z,5045
2023-03-21T09:37:15.504Z,5186
2023-03-21T09:38:29.736Z,5192
2023-03-21T09:39:44.042Z,5454
2023-03-21T09:40:58.282Z,5575
2023-03-21T09:42:12.503Z,5674
2023-03-21T09:43:26.731Z,5492
2023-03-21T09:44:40.959Z,5324
2023-03-21T09:45:55.270Z,4314
2023-03-21T09:47:09.500Z,3997
2023-03-21T09:48:23.845Z,4254
2023-03-21T09:49:38.081Z,4895
2023-03-21T09:50:52.305Z,5103
2023-03-21T09:52:06.599Z,5569
2023-03-21T09:53:20.854Z,5962
2023-03-21T09:54:35.063Z,6299
2023-03-21T09:55:49.292Z,6540
2023-03-21T09:58:17.820Z,6886
2023-03-21T10:00:46.289Z,7500
2023-03-21T10:02:00.524Z,7569
2023-03-21T10:03:14.896Z,7515
2023-03-21T10:04:29.193Z,7702
2023-03-21T10:05:43.438Z,7948
2023-03-21T10:06:57.649Z,7516
2023-03-21T10:08:12.025Z,7668
2023-03-21T10:09:26.249Z,7770
2023-03-21T10:10:40.546Z,7134
2023-03-21T10:11:54.784Z,6854
2023-03-21T10:13:09.028Z,6639
2023-03-21T10:15:37.468Z,5974
2023-03-21T10:16:51.774Z,6107
2023-03-21T10:18:06.009Z,6225
2023-03-21T10:19:20.244Z,6218
2023-03-21T10:20:34.469Z,5827
2023-03-21T10:23:02.994Z,5131
2023-03-21T10:24:17.241Z,4508
2023-03-21T10:25:31.611Z,4073
2023-03-21T10:26:45.833Z,3417
2023-03-21T10:28:00.056Z,3577
2023-03-21T10:29:14.346Z,3479
2023-03-21T10:30:28.593Z,3246
2023-03-21T10:31:42.831Z,3037
2023-03-21T10:32:57.171Z,3224
2023-03-21T10:34:11.400Z,3306
2023-03-21T10:35:25.709Z,3758
2023-03-21T10:36:39.934Z,4124
2023-03-21T10:37:54.159Z,4878
2023-03-21T10:39:08.399Z,5690
2023-03-21T10:40:22.775Z,5606
2023-03-21T10:41:37.069Z,6381
2023-03-21T10:42:51.294Z,5549
2023-03-21T10:44:05.541Z,4799
2023-03-21T10:45:19.870Z,5538
2023-03-21T10:46:34.103Z,6245
2023-03-21T10:47:48.404Z,6367
2023-03-21T10:49:02.645Z,5811
2023-03-21T10:50:16.868Z,6439
2023-03-21T10:51:31.096Z,6755
2023-03-21T10:52:45.336Z,6642
2023-03-21T10:53:59.631Z,6682
2023-03-21T10:55:13.869Z,6681
2023-03-21T10:56:28.090Z,6247
2023-03-21T10:57:42.322Z,5875
2023-03-21T10:58:56.542Z,5489
2023-03-21T11:00:10.837Z,4550
2023-03-21T11:01:25.097Z,4957
2023-03-21T11:02:39.304Z,5874
2023-03-21T11:03:53.532Z,6322
2023-03-21T11:06:22.194Z,6235
2023-03-21T11:07:36.430Z,5054
2023-03-21T11:08:50.654Z,4333
2023-03-21T11:10:04.887Z,4856
2023-03-21T11:11:19.119Z,4671
2023-03-21T11:12:33.410Z,4141
2023-03-21T11:15:01.879Z,4655
2023-03-21T11:16:16.107Z,4161
2023-03-21T11:17:30.328Z,4296
2023-03-21T11:18:44.637Z,3689
2023-03-21T11:19:58.863Z,2923
2023-03-21T11:21:13.106Z,3058
2023-03-21T11:22:27.437Z,2298
2023-03-21T11:23:41.670Z,2688
2023-03-21T11:24:55.973Z,2052
2023-03-21T11:26:10.222Z,3530
2023-03-21T11:27:24.441Z,4320
2023-03-21T11:28:38.666Z,4290
2023-03-21T11:29:52.901Z,4181
2023-03-21T11:31:07.202Z,3944
2023-03-21T11:32:21.436Z,4193
2023-03-21T11:33:35.656Z,4065
2023-03-21T11:34:49.895Z,4408
2023-03-21T11:36:04.116Z,5535
2023-03-21T11:37:18.405Z,5431
2023-03-21T11:38:32.655Z,5628
2023-03-21T11:39:46.993Z,5303
2023-03-21T11:41:01.222Z,5553
2023-03-21T11:42:15.448Z,5229
2023-03-21T11:43:29.763Z,5835
2023-03-21T11:44:43.989Z,5575
2023-03-21T11:45:58.213Z,5458
2023-03-21T11:47:12.455Z,5764
2023-03-21T11:48:26.679Z,5925
2023-03-21T11:49:40.973Z,5982
2023-03-21T11:52:09.444Z,6009
2023-03-21T11:53:23.670Z,5573
2023-03-21T11:55:52.194Z,5284
2023-03-21T11:57:06.436Z,5130
2023-03-21T11:59:34.898Z,5337
2023-03-21T12:00:49.124Z,5473
2023-03-21T12:03:17.648Z,5561
2023-03-21T12:04:31.886Z,5588
2023-03-21T12:05:46.105Z,5358
2023-03-21T12:08:14.631Z,5238
2023-03-21T12:09:28.872Z,5825
2023-03-21T12:10:43.092Z,5445
2023-03-21T12:11:57.469Z,5995
2023-03-21T12:13:11.697Z,6305
2023-03-21T12:14:26.006Z,5895
2023-03-21T12:15:40.239Z,6405
2023-03-21T12:18:08.681Z,6624
2023-03-21T12:19:23.049Z,6725
2023-03-21T12:21:51.582Z,6407
2023-03-21T12:23:05.809Z,6662
2023-03-21T12:24:20.039Z,5979
2023-03-21T12:25:34.250Z,5963
2023-03-21T12:26:48.569Z,6194
2023-03-21T12:28:02.804Z,6538
2023-03-21T12:29:17.176Z,4980
2023-03-21T12:30:31.395Z,5092
2023-03-21T12:31:45.632Z,4252
2023-03-21T12:32:59.914Z,4081
2023-03-21T12:34:14.164Z,4832
2023-03-21T12:35:28.397Z,4701
2023-03-21T12:36:42.614Z,5645
2023-03-21T12:37:56.847Z,5441
2023-03-21T12:39:11.134Z,5554
2023-03-21T12:40:25.375Z,5728
2023-03-21T12:41:39.612Z,5720
2023-03-21T12:42:53.829Z,5766
2023-03-21T12:44:08.055Z,5812
2023-03-21T12:45:22.365Z,5944
2023-03-21T12:46:36.603Z,5920
2023-03-21T12:47:50.830Z,6137
2023-03-21T12:49:05.199Z,6726
2023-03-21T12:50:19.433Z,7000
2023-03-21T12:51:33.717Z,7108
2023-03-21T12:52:47.957Z,7293
2023-03-21T12:54:02.322Z,7701
2023-03-21T12:55:16.539Z,8512
2023-03-21T12:56:30.760Z,8990
2023-03-21T12:57:45.077Z,9653
2023-03-21T12:58:59.306Z,9775
2023-03-21T13:00:13.538Z,8911
2023-03-21T13:01:27.766Z,7822
2023-03-21T13:02:41.991Z,7453
2023-03-21T13:03:56.283Z,6749
2023-03-21T13:05:10.537Z,6344
2023-03-21T13:06:24.756Z,6360
2023-03-21T13:07:38.987Z,6514
2023-03-21T13:08:53.216Z,6587
2023-03-21T13:10:07.504Z,6726
2023-03-21T13:11:21.750Z,6826
2023-03-21T13:12:35.966Z,6960
2023-03-21T13:13:50.205Z,7078
2023-03-21T13:15:04.436Z,7098
2023-03-21T13:16:18.730Z,6909
2023-03-21T13:17:32.970Z,6910
2023-03-21T13:18:47.194Z,7144
2023-03-21T13:20:01.424Z,7413
2023-03-21T13:21:15.646Z,7477
2023-03-21T13:22:29.950Z,7288
2023-03-21T13:23:44.191Z,6767
2023-03-21T13:24:58.419Z,6482
2023-03-21T13:26:12.792Z,6266
2023-03-21T13:27:27.017Z,6230
2023-03-21T13:28:41.309Z,6477
2023-03-21T13:29:55.553Z,6925
2023-03-21T13:31:09.930Z,7205
2023-03-21T13:32:24.157Z,7127
2023-03-21T13:33:38.493Z,7217
2023-03-21T13:34:52.799Z,6952
2023-03-21T13:36:07.037Z,6832
2023-03-21T13:37:21.260Z,6907
2023-03-21T13:38:35.484Z,7224
2023-03-21T13:39:49.724Z,7119
2023-03-21T13:41:04.024Z,7703
2023-03-21T13:42:18.257Z,7805
2023-03-21T13:43:32.491Z,8197
2023-03-21T13:44:46.704Z,8189
2023-03-21T13:46:00.942Z,8592
2023-03-21T13:47:15.243Z,8120
2023-03-21T13:48:29.477Z,7659
2023-03-21T13:49:43.711Z,7540
2023-03-21T13:50:58.045Z,7030
2023-03-21T13:52:12.289Z,6766
2023-03-21T13:53:26.589Z,5852
2023-03-21T13:54:40.819Z,5949
2023-03-21T13:57:09.278Z,5074
2023-03-21T13:58:23.651Z,4637
2023-03-21T13:59:37.943Z,4940
2023-03-21T14:00:52.176Z,4623
2023-03-21T14:02:06.415Z,4390
2023-03-21T14:03:20.787Z,4224
2023-03-21T14:04:35.005Z,4153
2023-03-21T14:07:03.538Z,3421
2023-03-21T14:08:17.782Z,3213
2023-03-21T14:10:46.218Z,2999
2023-03-21T14:12:00.533Z,3018
2023-03-21T14:13:14.760Z,3231
2023-03-21T14:14:28.991Z,3611
2023-03-21T14:15:43.226Z,3760
2023-03-21T14:16:57.451Z,3792
2023-03-21T14:18:11.749Z,3708
2023-03-21T14:19:25.987Z,3586
2023-03-21T14:20:40.365Z,3576
2023-03-21T14:21:54.715Z,3701
2023-03-21T14:23:08.939Z,3799
2023-03-21T14:24:23.237Z,4023
2023-03-21T14:25:37.474Z,4196
2023-03-21T14:26:51.694Z,4436
2023-03-21T14:28:05.930Z,4649
2023-03-21T14:29:20.150Z,4729
2023-03-21T14:30:34.450Z,4721
2023-03-21T14:31:48.698Z,4604
2023-03-21T14:33:02.908Z,4344
2023-03-21T14:34:17.136Z,4043
2023-03-21T14:35:31.516Z,3949
2023-03-21T14:36:45.817Z,3776
2023-03-21T14:38:00.057Z,3683
2023-03-21T14:39:14.282Z,3601
2023-03-21T14:40:28.627Z,3552
2023-03-21T14:41:42.855Z,3540
2023-03-21T14:42:57.163Z,3618
2023-03-21T14:44:11.396Z,3755
2023-03-21T14:45:25.618Z,3743
2023-03-21T14:46:39.849Z,3606
2023-03-21T14:47:54.081Z,3651
2023-03-21T14:49:08.386Z,3911
2023-03-21T14:50:22.620Z,3885
2023-03-21T14:51:36.844Z,3962
2023-03-21T14:52:51.066Z,4179
2023-03-21T14:54:05.299Z,4266
2023-03-21T14:55:19.594Z,4584
2023-03-21T14:56:33.827Z,4846
2023-03-21T14:57:48.199Z,4935
2023-03-21T14:59:02.407Z,4939
2023-03-21T15:00:16.647Z,4949
2023-03-21T15:01:30.936Z,4968
2023-03-21T15:02:45.177Z,4989
2023-03-21T15:03:59.417Z,4898
2023-03-21T15:05:13.628Z,4630
2023-03-21T15:06:27.867Z,4516
2023-03-21T15:07:42.157Z,4293
2023-03-21T15:08:56.409Z,4161
2023-03-21T15:10:10.638Z,4086
2023-03-21T15:11:24.863Z,4064
2023-03-21T15:12:39.088Z,4049
2023-03-21T15:13:53.375Z,3946
2023-03-21T15:15:07.630Z,3858
2023-03-21T15:16:21.852Z,3716
2023-03-21T15:17:36.070Z,3490
2023-03-21T15:18:50.297Z,3387
2023-03-21T15:20:04.603Z,3136
2023-03-21T15:21:18.844Z,2911
2023-03-21T15:22:33.216Z,2784
2023-03-21T15:23:47.441Z,2750
2023-03-21T15:25:01.778Z,2739
2023-03-21T15:26:16.077Z,2870
2023-03-21T15:27:30.316Z,3098
2023-03-21T15:28:44.556Z,3334
2023-03-21T15:29:58.932Z,3529
2023-03-21T15:31:13.148Z,3567
2023-03-21T15:32:27.446Z,3668
2023-03-21T15:33:41.689Z,3750
2023-03-21T15:34:56.042Z,3854
2023-03-21T15:37:24.491Z,3871
2023-03-21T15:38:38.790Z,4089
2023-03-21T15:39:53.041Z,4579
2023-03-21T15:42:21.477Z,4021
2023-03-21T15:43:35.700Z,4110
2023-03-21T15:44:50.003Z,4332
2023-03-21T15:46:04.242Z,4166
2023-03-21T15:47:18.618Z,3938
2023-03-21T15:48:32.846Z,3856
2023-03-21T15:49:47.203Z,3874
2023-03-21T15:52:15.746Z,3974
2023-03-21T15:53:29.957Z,4003
2023-03-21T15:54:44.192Z,3938
2023-03-21T15:55:58.422Z,3924
2023-03-21T15:57:12.711Z,3794
2023-03-21T15:59:41.178Z,3393
2023-03-21T16:00:55.415Z,3289
2023-03-21T16:02:09.629Z,3237
2023-03-21T16:03:23.942Z,2934
2023-03-21T16:04:38.170Z,2740
2023-03-21T16:05:52.404Z,2645
2023-03-21T16:07:06.769Z,2709
2023-03-21T16:08:21.003Z,2709
2023-03-21T16:09:35.303Z,2676
2023-03-21T16:10:49.535Z,2662
2023-03-21T16:12:03.768Z,2653
2023-03-21T16:13:17.992Z,2653
2023-03-21T16:14:32.336Z,2693
2023-03-21T16:15:46.630Z,2752
2023-03-21T16:17:00.884Z,3027
2023-03-21T16:19:29.331Z,3223
2023-03-21T16:20:43.555Z,3131
2023-03-21T16:21:57.855Z,3253
2023-03-21T16:23:12.096Z,3313
2023-03-21T16:24:26.323Z,3382
2023-03-21T16:25:40.544Z,3151
2023-03-21T16:26:54.781Z,3174
2023-03-21T16:28:09.080Z,3069
2023-03-21T16:29:23.316Z,3018
2023-03-21T16:30:37.535Z,2899
2023-03-21T16:31:51.882Z,2802
2023-03-21T16:33:06.111Z,2745
2023-03-21T16:34:20.408Z,2814
2023-03-21T16:35:34.650Z,2852
2023-03-21T16:36:48.880Z,2868
2023-03-21T16:38:03.116Z,2870
2023-03-21T16:39:17.488Z,2853
2023-03-21T16:40:31.775Z,2743
2023-03-21T16:41:46.015Z,2591
2023-03-21T16:43:00.242Z,2515
2023-03-21T16:44:14.619Z,2511
2023-03-21T16:45:28.845Z,2555
2023-03-21T16:46:43.143Z,2474
2023-03-21T16:47:57.381Z,2410
2023-03-21T16:49:11.739Z,2399
2023-03-21T16:50:25.959Z,2280
2023-03-21T16:51:40.193Z,2213
2023-03-21T16:52:54.479Z,2034
2023-03-21T16:54:08.728Z,1908
2023-03-21T16:55:22.953Z,1805
2023-03-21T16:56:37.185Z,1686
2023-03-21T16:57:51.401Z,1643
2023-03-21T16:59:05.703Z,1512
2023-03-21T17:00:19.954Z,1445
2023-03-21T17:01:34.321Z,1432
2023-03-21T17:04:02.765Z,1342
2023-03-21T17:05:17.070Z,1241
2023-03-21T17:06:31.302Z,1167
2023-03-21T17:07:45.525Z,1124
2023-03-21T17:08:59.762Z,1070
2023-03-21T17:10:13.990Z,1041
2023-03-21T17:11:28.279Z,957
2023-03-21T17:12:42.532Z,891
2023-03-21T17:15:10.988Z,812
2023-03-21T17:16:25.206Z,799
2023-03-21T17:17:39.494Z,751
2023-03-21T17:18:53.740Z,711
2023-03-21T17:20:08.103Z,681
2023-03-21T17:21:22.330Z,635
2023-03-21T17:22:36.541Z,615
2023-03-21T17:23:50.837Z,568
2023-03-21T17:25:05.078Z,509
2023-03-21T17:26:19.306Z,454
2023-03-21T17:28:47.760Z,381
2023-03-21T17:30:02.066Z,325
2023-03-21T17:31:16.301Z,284
2023-03-21T17:32:30.538Z,250
2023-03-21T17:33:44.913Z,220
2023-03-21T17:34:59.133Z,203
2023-03-21T17:36:13.434Z,180
2023-03-21T17:37:27.677Z,154
2023-03-21T17:38:42.040Z,130
2023-03-21T17:39:56.272Z,102
2023-03-21T17:41:10.624Z,92
2023-03-21T17:42:24.926Z,79
2023-03-21T17:43:39.156Z,69
2023-03-21T17:46:07.619Z,49
2023-03-21T17:47:21.828Z,47
2023-03-21T17:48:36.137Z,34
2023-03-21T17:49:50.385Z,28
2023-03-21T17:51:04.599Z,23